This is the latest recevied weather packets stored in our database for station/object SV2RIM-2. If no packets are shown the sender has not sent any weather packets the latest 1 day(s).
| Time | Temp. | Humidity | Pressure | Rain* | Wind** | Luminosity | Snow |
|---|---|---|---|---|---|---|---|
| 1778093419 | 17.78° C | 43% | 1014.5 hPa | - | - | - | - |
| 1778092819 | 18.33° C | 42% | 1014.3 hPa | - | - | - | - |
| 1778092219 | 18.33° C | 41% | 1014.3 hPa | - | - | - | - |
| 1778091619 | 18.89° C | 39% | 1014.1 hPa | - | - | - | - |
| 1778091019 | 19.44° C | 39% | 1014.1 hPa | - | - | - | - |
| 1778089819 | 20° C | 38% | 1013.9 hPa | - | - | - | - |
| 1778088619 | 20.56° C | 37% | 1013.8 hPa | - | - | - | - |
| 1778087419 | 21.11° C | 36% | 1013.5 hPa | - | - | - | - |
| 1778086819 | 21.67° C | 35% | 1013.4 hPa | - | - | - | - |
| 1778086219 | 22.22° C | 35% | 1013.4 hPa | - | - | - | - |
| 1778085619 | 22.78° C | 34% | 1013.5 hPa | - | - | - | - |
| 1778085019 | 22.78° C | 34% | 1013.4 hPa | - | - | - | - |
| 1778084419 | 23.33° C | 34% | 1013.4 hPa | - | - | - | - |
| 1778083819 | 23.89° C | 34% | 1013.4 hPa | - | - | - | - |
| 1778083219 | 25.56° C | 33% | 1013.3 hPa | - | - | - | - |
| 1778082619 | 27.22° C | 32% | 1013.4 hPa | - | - | - | - |
| 1778081419 | 30° C | 29% | 1013.6 hPa | - | - | - | - |
| 1778080819 | 28.89° C | 30% | 1013.5 hPa | - | - | - | - |
| 1778080219 | 28.89° C | 30% | 1013.5 hPa | - | - | - | - |
| 1778079019 | 26.67° C | 32% | 1013.5 hPa | - | - | - | - |
| 1778078419 | 26.11° C | 33% | 1013.5 hPa | - | - | - | - |
| 1778077819 | 26.11° C | 35% | 1013.4 hPa | - | - | - | - |
| 1778077219 | 27.22° C | 36% | 1013.5 hPa | - | - | - | - |
| 1778076619 | 30° C | 32% | 1013.5 hPa | - | - | - | - |
| 1778075419 | 30° C | 34% | 1013.5 hPa | - | - | - | - |
* Rain since midnight (hover to see other rain measurements)
** Current wind speed in m/s (hover to see current wind gust speed)